sensor_id;sensor_type;location;lat;lon;timestamp;pressure;altitude;pressure_sealevel;temperature;humidity
1472;BME280;963;42.644;23.336;2023-04-05T00:02:07;93674.84;;;3.13;69.57
1472;BME280;963;42.644;23.336;2023-04-05T00:04:35;93682.53;;;3.22;69.17
1472;BME280;963;42.644;23.336;2023-04-05T00:07:02;93665.56;;;3.24;69.58
1472;BME280;963;42.644;23.336;2023-04-05T00:09:32;93661.41;;;3.11;69.61
1472;BME280;963;42.644;23.336;2023-04-05T00:11:57;93665.56;;;3.24;69.68
1472;BME280;963;42.644;23.336;2023-04-05T00:14:23;93663.38;;;3.14;70.07
1472;BME280;963;42.644;23.336;2023-04-05T00:16:48;93645.66;;;2.95;70.24
1472;BME280;963;42.644;23.336;2023-04-05T00:19:14;93652.00;;;3.19;69.78
1472;BME280;963;42.644;23.336;2023-04-05T00:21:39;93656.34;;;3.27;69.25
1472;BME280;963;42.644;23.336;2023-04-05T00:24:06;93653.63;;;3.11;70.17
1472;BME280;963;42.644;23.336;2023-04-05T00:26:32;93648.66;;;3.18;69.77
1472;BME280;963;42.644;23.336;2023-04-05T00:28:57;93658.16;;;3.02;70.44
1472;BME280;963;42.644;23.336;2023-04-05T00:31:23;93654.16;;;3.17;69.50
1472;BME280;963;42.644;23.336;2023-04-05T00:33:48;93673.56;;;3.19;69.76
1472;BME280;963;42.644;23.336;2023-04-05T00:36:15;93672.03;;;3.18;70.11
1472;BME280;963;42.644;23.336;2023-04-05T00:38:42;93658.16;;;3.14;69.63
1472;BME280;963;42.644;23.336;2023-04-05T00:41:09;93684.81;;;3.23;69.22
1472;BME280;963;42.644;23.336;2023-04-05T00:43:35;93666.31;;;3.25;68.99
1472;BME280;963;42.644;23.336;2023-04-05T00:46:01;93659.47;;;3.08;69.81
1472;BME280;963;42.644;23.336;2023-04-05T00:48:27;93661.88;;;3.25;69.25
1472;BME280;963;42.644;23.336;2023-04-05T00:50:53;93663.69;;;3.12;69.50
1472;BME280;963;42.644;23.336;2023-04-05T00:53:20;93651.88;;;3.03;69.60
1472;BME280;963;42.644;23.336;2023-04-05T00:55:46;93671.13;;;3.02;69.47
1472;BME280;963;42.644;23.336;2023-04-05T00:58:13;93659.88;;;2.98;69.37
1472;BME280;963;42.644;23.336;2023-04-05T01:00:38;93659.41;;;2.96;69.60
1472;BME280;963;42.644;23.336;2023-04-05T01:03:06;93662.50;;;3.22;68.41
1472;BME280;963;42.644;23.336;2023-04-05T01:08:11;93673.47;;;2.95;69.72
1472;BME280;963;42.644;23.336;2023-04-05T01:10:39;93667.91;;;3.05;69.13
1472;BME280;963;42.644;23.336;2023-04-05T01:13:07;93667.19;;;2.96;69.78
1472;BME280;963;42.644;23.336;2023-04-05T01:15:33;93663.78;;;3.04;68.56
1472;BME280;963;42.644;23.336;2023-04-05T01:17:58;93678.53;;;3.12;69.23
1472;BME280;963;42.644;23.336;2023-04-05T01:20:27;93664.44;;;3.13;68.61
1472;BME280;963;42.644;23.336;2023-04-05T01:23:16;93671.69;;;3.07;69.11
1472;BME280;963;42.644;23.336;2023-04-05T01:31:31;93681.56;;;3.26;68.65
1472;BME280;963;42.644;23.336;2023-04-05T01:34:04;93671.81;;;3.11;69.15
1472;BME280;963;42.644;23.336;2023-04-05T01:36:58;93676.78;;;3.16;68.95
1472;BME280;963;42.644;23.336;2023-04-05T01:39:26;93671.38;;;3.09;68.88
1472;BME280;963;42.644;23.336;2023-04-05T01:41:58;93670.94;;;3.07;68.38
1472;BME280;963;42.644;23.336;2023-04-05T01:44:24;93663.34;;;3.02;68.26
1472;BME280;963;42.644;23.336;2023-04-05T01:46:49;93658.84;;;2.90;68.70
1472;BME280;963;42.644;23.336;2023-04-05T01:49:15;93684.34;;;3.09;68.42
1472;BME280;963;42.644;23.336;2023-04-05T01:51:40;93659.69;;;2.82;68.31
1472;BME280;963;42.644;23.336;2023-04-05T01:54:07;93687.50;;;2.81;68.66
1472;BME280;963;42.644;23.336;2023-04-05T01:56:33;93673.44;;;2.82;68.93
1472;BME280;963;42.644;23.336;2023-04-05T01:58:58;93691.84;;;2.90;68.52
1472;BME280;963;42.644;23.336;2023-04-05T02:01:23;93684.28;;;2.97;68.33
1472;BME280;963;42.644;23.336;2023-04-05T02:03:49;93686.91;;;2.97;68.16
1472;BME280;963;42.644;23.336;2023-04-05T02:06:14;93685.63;;;3.03;68.35
1472;BME280;963;42.644;23.336;2023-04-05T02:08:40;93703.38;;;2.80;68.83
1472;BME280;963;42.644;23.336;2023-04-05T02:11:06;93683.25;;;2.98;68.70
1472;BME280;963;42.644;23.336;2023-04-05T02:13:31;93676.00;;;3.03;68.88
1472;BME280;963;42.644;23.336;2023-04-05T02:15:56;93671.81;;;3.11;67.92
1472;BME280;963;42.644;23.336;2023-04-05T02:18:22;93679.63;;;3.23;67.81
1472;BME280;963;42.644;23.336;2023-04-05T02:21:03;93672.47;;;3.20;68.19
1472;BME280;963;42.644;23.336;2023-04-05T02:23:29;93677.84;;;3.36;67.68
1472;BME280;963;42.644;23.336;2023-04-05T02:25:56;93682.38;;;3.39;67.17
1472;BME280;963;42.644;23.336;2023-04-05T02:28:21;93683.66;;;3.33;67.32
1472;BME280;963;42.644;23.336;2023-04-05T02:30:47;93678.53;;;3.12;68.52
1472;BME280;963;42.644;23.336;2023-04-05T02:33:12;93665.06;;;2.98;68.68
1472;BME280;963;42.644;23.336;2023-04-05T02:35:38;93660.66;;;3.10;67.98
1472;BME280;963;42.644;23.336;2023-04-05T02:38:04;93675.06;;;3.20;67.86
1472;BME280;963;42.644;23.336;2023-04-05T02:40:30;93659.22;;;3.01;68.51
1472;BME280;963;42.644;23.336;2023-04-05T02:42:56;93664.91;;;3.27;67.50
1472;BME280;963;42.644;23.336;2023-04-05T02:45:21;93670.16;;;3.06;68.25
1472;BME280;963;42.644;23.336;2023-04-05T02:47:47;93666.19;;;3.21;68.11
1472;BME280;963;42.644;23.336;2023-04-05T02:50:12;93656.06;;;2.62;69.03
1472;BME280;963;42.644;23.336;2023-04-05T02:52:38;93668.28;;;2.95;68.81
1472;BME280;963;42.644;23.336;2023-04-05T02:55:04;93677.66;;;3.08;68.45
1472;BME280;963;42.644;23.336;2023-04-05T02:57:30;93662.63;;;3.26;68.06
1472;BME280;963;42.644;23.336;2023-04-05T02:59:56;93679.38;;;3.04;68.56
1472;BME280;963;42.644;23.336;2023-04-05T03:02:21;93669.22;;;3.23;68.07
1472;BME280;963;42.644;23.336;2023-04-05T03:04:47;93661.53;;;3.14;67.96
1472;BME280;963;42.644;23.336;2023-04-05T03:07:12;93664.47;;;3.25;68.09
1472;BME280;963;42.644;23.336;2023-04-05T03:09:43;93665.34;;;3.29;67.83
1472;BME280;963;42.644;23.336;2023-04-05T03:12:10;93666.09;;;3.30;68.28
1472;BME280;963;42.644;23.336;2023-04-05T03:14:36;93661.88;;;3.25;67.77
1472;BME280;963;42.644;23.336;2023-04-05T03:17:02;93666.09;;;3.18;68.28
1472;BME280;963;42.644;23.336;2023-04-05T03:19:28;93682.28;;;3.35;67.48
1472;BME280;963;42.644;23.336;2023-04-05T03:21:53;93668.03;;;3.21;67.62
1472;BME280;963;42.644;23.336;2023-04-05T03:24:19;93659.72;;;3.27;67.51
1472;BME280;963;42.644;23.336;2023-04-05T03:26:45;93682.94;;;3.44;67.14
1472;BME280;963;42.644;23.336;2023-04-05T03:29:11;93664.78;;;3.24;67.56
1472;BME280;963;42.644;23.336;2023-04-05T03:31:36;93670.81;;;3.03;68.71
1472;BME280;963;42.644;23.336;2023-04-05T03:34:02;93683.09;;;3.27;67.85
1472;BME280;963;42.644;23.336;2023-04-05T03:36:27;93660.97;;;3.09;68.49
1472;BME280;963;42.644;23.336;2023-04-05T03:38:55;93662.91;;;3.00;69.01
1472;BME280;963;42.644;23.336;2023-04-05T03:41:20;93675.91;;;3.12;69.62
1472;BME280;963;42.644;23.336;2023-04-05T03:43:46;93674.09;;;2.92;70.43
1472;BME280;963;42.644;23.336;2023-04-05T03:46:13;93674.38;;;2.99;70.27
1472;BME280;963;42.644;23.336;2023-04-05T03:48:38;93687.09;;;2.92;70.66
1472;BME280;963;42.644;23.336;2023-04-05T03:51:03;93694.06;;;3.00;70.32
1472;BME280;963;42.644;23.336;2023-04-05T03:53:30;93672.66;;;2.82;70.64
1472;BME280;963;42.644;23.336;2023-04-05T03:55:55;93686.09;;;3.17;70.04
1472;BME280;963;42.644;23.336;2023-04-05T03:58:21;93677.88;;;3.15;69.73
1472;BME280;963;42.644;23.336;2023-04-05T04:00:46;93694.97;;;3.16;70.42
1472;BME280;963;42.644;23.336;2023-04-05T04:03:13;93697.59;;;3.28;70.59
1472;BME280;963;42.644;23.336;2023-04-05T04:05:39;93688.78;;;3.08;71.73
1472;BME280;963;42.644;23.336;2023-04-05T04:08:04;93688.44;;;2.98;72.26
1472;BME280;963;42.644;23.336;2023-04-05T04:10:31;93713.13;;;3.04;72.42
1472;BME280;963;42.644;23.336;2023-04-05T04:12:56;93696.84;;;2.95;72.38
1472;BME280;963;42.644;23.336;2023-04-05T04:15:22;93723.75;;;3.11;71.77
1472;BME280;963;42.644;23.336;2023-04-05T04:17:47;93708.38;;;2.85;72.83
1472;BME280;963;42.644;23.336;2023-04-05T04:20:12;93699.44;;;2.95;72.56
1472;BME280;963;42.644;23.336;2023-04-05T04:22:38;93707.28;;;3.07;72.13
1472;BME280;963;42.644;23.336;2023-04-05T04:25:08;93704.25;;;3.05;71.62
1472;BME280;963;42.644;23.336;2023-04-05T04:27:40;93697.91;;;2.94;72.17
1472;BME280;963;42.644;23.336;2023-04-05T04:30:11;93716.41;;;3.13;71.87
1472;BME280;963;42.644;23.336;2023-04-05T04:32:38;93690.97;;;2.86;72.09
1472;BME280;963;42.644;23.336;2023-04-05T04:35:21;93696.09;;;2.94;71.48
1472;BME280;963;42.644;23.336;2023-04-05T04:37:54;93697.13;;;3.14;71.25
1472;BME280;963;42.644;23.336;2023-04-05T04:40:23;93698.91;;;3.22;70.64
1472;BME280;963;42.644;23.336;2023-04-05T04:42:50;93701.59;;;3.26;70.89
1472;BME280;963;42.644;23.336;2023-04-05T04:45:17;93696.56;;;3.41;69.79
1472;BME280;963;42.644;23.336;2023-04-05T04:47:47;93703.09;;;3.48;69.14
1472;BME280;963;42.644;23.336;2023-04-05T04:50:13;93723.44;;;3.45;67.78
1472;BME280;963;42.644;23.336;2023-04-05T04:52:40;93709.38;;;3.59;67.91
1472;BME280;963;42.644;23.336;2023-04-05T04:55:08;93711.09;;;3.55;66.88
1472;BME280;963;42.644;23.336;2023-04-05T04:57:34;93695.84;;;3.53;65.75
1472;BME280;963;42.644;23.336;2023-04-05T05:00:00;93706.25;;;3.65;65.17
1472;BME280;963;42.644;23.336;2023-04-05T05:02:26;93706.97;;;3.41;64.86
1472;BME280;963;42.644;23.336;2023-04-05T05:04:52;93710.03;;;3.56;64.22
1472;BME280;963;42.644;23.336;2023-04-05T05:07:18;93685.13;;;3.09;65.82
1472;BME280;963;42.644;23.336;2023-04-05T05:09:43;93709.78;;;3.36;65.39
1472;BME280;963;42.644;23.336;2023-04-05T05:12:10;93710.66;;;3.40;65.71
1472;BME280;963;42.644;23.336;2023-04-05T05:14:35;93698.41;;;3.41;66.41
1472;BME280;963;42.644;23.336;2023-04-05T05:17:01;93713.03;;;3.45;66.50
1472;BME280;963;42.644;23.336;2023-04-05T05:19:26;93725.13;;;3.29;67.34
1472;BME280;963;42.644;23.336;2023-04-05T05:21:53;93737.09;;;3.55;67.04
1472;BME280;963;42.644;23.336;2023-04-05T05:24:19;93710.56;;;3.16;68.51
1472;BME280;963;42.644;23.336;2023-04-05T05:26:44;93719.28;;;3.32;68.51
1472;BME280;963;42.644;23.336;2023-04-05T05:29:10;93708.50;;;3.42;67.64
1472;BME280;963;42.644;23.336;2023-04-05T05:31:35;93714.78;;;3.54;67.64
1472;BME280;963;42.644;23.336;2023-04-05T05:34:01;93742.44;;;3.25;68.69
1472;BME280;963;42.644;23.336;2023-04-05T05:36:26;93716.19;;;3.51;67.63
1472;BME280;963;42.644;23.336;2023-04-05T05:38:52;93711.66;;;3.15;68.83
1472;BME280;963;42.644;23.336;2023-04-05T05:41:21;93709.16;;;3.52;67.75
1472;BME280;963;42.644;23.336;2023-04-05T05:43:47;93728.44;;;3.51;68.12
1472;BME280;963;42.644;23.336;2023-04-05T05:46:12;93725.41;;;3.61;67.30
1472;BME280;963;42.644;23.336;2023-04-05T05:48:38;93712.16;;;3.41;67.60
1472;BME280;963;42.644;23.336;2023-04-05T05:51:03;93715.78;;;3.61;66.56
1472;BME280;963;42.644;23.336;2023-04-05T05:53:35;93717.75;;;3.76;65.39
1472;BME280;963;42.644;23.336;2023-04-05T05:56:01;93712.03;;;3.83;64.58
1472;BME280;963;42.644;23.336;2023-04-05T05:58:26;93711.38;;;3.86;64.69
1472;BME280;963;42.644;23.336;2023-04-05T06:00:52;93702.91;;;3.89;63.81
1472;BME280;963;42.644;23.336;2023-04-05T06:03:22;93719.81;;;3.95;63.98
1472;BME280;963;42.644;23.336;2023-04-05T06:05:57;93742.16;;;4.08;63.44
1472;BME280;963;42.644;23.336;2023-04-05T06:08:24;93733.06;;;3.90;63.54
1472;BME280;963;42.644;23.336;2023-04-05T06:10:52;93717.78;;;4.13;63.11
1472;BME280;963;42.644;23.336;2023-04-05T06:13:18;93697.50;;;3.94;61.67
1472;BME280;963;42.644;23.336;2023-04-05T06:15:44;93726.56;;;4.21;61.04
1472;BME280;963;42.644;23.336;2023-04-05T06:18:09;93740.22;;;4.18;60.88
1472;BME280;963;42.644;23.336;2023-04-05T06:20:35;93722.75;;;4.06;60.86
1472;BME280;963;42.644;23.336;2023-04-05T06:23:08;93722.78;;;4.18;61.21
1472;BME280;963;42.644;23.336;2023-04-05T06:25:34;93716.94;;;4.09;61.36
1472;BME280;963;42.644;23.336;2023-04-05T06:28:02;93712.47;;;4.22;61.10
1472;BME280;963;42.644;23.336;2023-04-05T06:30:27;93722.44;;;4.32;61.51
1472;BME280;963;42.644;23.336;2023-04-05T06:32:53;93720.56;;;4.45;60.45
1472;BME280;963;42.644;23.336;2023-04-05T06:35:23;93728.59;;;4.52;60.27
1472;BME280;963;42.644;23.336;2023-04-05T06:37:48;93742.06;;;4.17;60.46
1472;BME280;963;42.644;23.336;2023-04-05T06:40:15;93723.28;;;4.36;60.00
1472;BME280;963;42.644;23.336;2023-04-05T06:42:41;93744.94;;;4.89;61.60
1472;BME280;963;42.644;23.336;2023-04-05T06:45:07;93753.19;;;4.79;58.64
1472;BME280;963;42.644;23.336;2023-04-05T06:47:36;93746.03;;;4.76;58.45
1472;BME280;963;42.644;23.336;2023-04-05T06:50:03;93736.78;;;4.90;57.86
1472;BME280;963;42.644;23.336;2023-04-05T06:52:29;93753.59;;;4.81;57.80
1472;BME280;963;42.644;23.336;2023-04-05T06:54:54;93739.91;;;4.31;58.72
1472;BME280;963;42.644;23.336;2023-04-05T06:57:21;93743.75;;;4.74;58.76
1472;BME280;963;42.644;23.336;2023-04-05T06:59:46;93764.84;;;4.57;58.77
1472;BME280;963;42.644;23.336;2023-04-05T07:02:12;93756.44;;;4.76;57.87
1472;BME280;963;42.644;23.336;2023-04-05T07:04:38;93771.84;;;4.81;57.86
1472;BME280;963;42.644;23.336;2023-04-05T07:07:04;93754.81;;;4.83;57.31
1472;BME280;963;42.644;23.336;2023-04-05T07:09:34;93778.84;;;5.05;56.62
1472;BME280;963;42.644;23.336;2023-04-05T07:12:01;93760.94;;;5.03;56.45
1472;BME280;963;42.644;23.336;2023-04-05T07:14:34;93761.41;;;4.93;56.72
1472;BME280;963;42.644;23.336;2023-04-05T07:17:00;93765.78;;;4.89;57.68
1472;BME280;963;42.644;23.336;2023-04-05T07:19:25;93768.81;;;4.91;57.46
1472;BME280;963;42.644;23.336;2023-04-05T07:21:51;93775.81;;;5.02;56.21
1472;BME280;963;42.644;23.336;2023-04-05T07:24:17;93755.56;;;4.84;57.01
1472;BME280;963;42.644;23.336;2023-04-05T07:26:42;93787.47;;;4.93;57.17
1472;BME280;963;42.644;23.336;2023-04-05T07:29:09;93786.06;;;4.95;57.35
1472;BME280;963;42.644;23.336;2023-04-05T07:31:34;93783.19;;;5.13;57.16
1472;BME280;963;42.644;23.336;2023-04-05T07:34:00;93782.66;;;5.07;55.98
1472;BME280;963;42.644;23.336;2023-04-05T07:36:27;93774.13;;;4.82;56.68
1472;BME280;963;42.644;23.336;2023-04-05T07:38:58;93781.16;;;4.94;56.61
1472;BME280;963;42.644;23.336;2023-04-05T07:41:24;93779.69;;;4.68;56.79
1472;BME280;963;42.644;23.336;2023-04-05T07:43:50;93789.22;;;4.77;56.96
1472;BME280;963;42.644;23.336;2023-04-05T07:46:16;93792.03;;;4.96;56.69
1472;BME280;963;42.644;23.336;2023-04-05T07:48:41;93795.59;;;5.03;56.97
1472;BME280;963;42.644;23.336;2023-04-05T07:51:08;93815.44;;;5.08;56.48
1472;BME280;963;42.644;23.336;2023-04-05T07:53:35;93802.25;;;4.89;57.21
1472;BME280;963;42.644;23.336;2023-04-05T07:56:11;93803.06;;;5.05;57.01
1472;BME280;963;42.644;23.336;2023-04-05T07:58:38;93803.09;;;4.93;56.75
1472;BME280;963;42.644;23.336;2023-04-05T08:01:06;93804.31;;;4.83;57.43
1472;BME280;963;42.644;23.336;2023-04-05T08:03:32;93804.94;;;4.92;56.74
1472;BME280;963;42.644;23.336;2023-04-05T08:06:08;93810.91;;;5.05;56.42
1472;BME280;963;42.644;23.336;2023-04-05T08:08:35;93799.75;;;4.92;57.14
1472;BME280;963;42.644;23.336;2023-04-05T08:11:03;93805.25;;;5.03;57.34
1472;BME280;963;42.644;23.336;2023-04-05T08:13:29;93819.25;;;5.11;57.21
1472;BME280;963;42.644;23.336;2023-04-05T08:15:55;93821.66;;;5.03;58.14
1472;BME280;963;42.644;23.336;2023-04-05T08:18:21;93812.59;;;5.13;57.47
1472;BME280;963;42.644;23.336;2023-04-05T08:20:52;93820.59;;;4.80;57.79
1472;BME280;963;42.644;23.336;2023-04-05T08:23:17;93834.94;;;4.86;58.00
1472;BME280;963;42.644;23.336;2023-04-05T08:25:43;93812.66;;;4.89;57.91
1472;BME280;963;42.644;23.336;2023-04-05T08:28:09;93837.09;;;4.60;58.60
1472;BME280;963;42.644;23.336;2023-04-05T08:30:34;93818.97;;;4.63;58.35
1472;BME280;963;42.644;23.336;2023-04-05T08:33:01;93814.63;;;4.92;57.40
1472;BME280;963;42.644;23.336;2023-04-05T08:35:26;93831.25;;;4.87;57.86
1472;BME280;963;42.644;23.336;2023-04-05T08:37:51;93824.16;;;5.00;57.92
1472;BME280;963;42.644;23.336;2023-04-05T08:40:17;93821.78;;;4.70;58.75
1472;BME280;963;42.644;23.336;2023-04-05T08:42:51;93837.41;;;4.70;59.46
1472;BME280;963;42.644;23.336;2023-04-05T08:45:19;93828.19;;;4.85;58.29
1472;BME280;963;42.644;23.336;2023-04-05T08:47:46;93848.06;;;4.90;57.77
1472;BME280;963;42.644;23.336;2023-04-05T08:50:13;93856.84;;;4.85;58.10
1472;BME280;963;42.644;23.336;2023-04-05T08:52:39;93827.75;;;4.71;58.07
1472;BME280;963;42.644;23.336;2023-04-05T08:55:07;93839.38;;;4.86;57.90
1472;BME280;963;42.644;23.336;2023-04-05T08:57:36;93839.78;;;5.00;58.26
1472;BME280;963;42.644;23.336;2023-04-05T09:00:06;93851.09;;;4.80;58.54
1472;BME280;963;42.644;23.336;2023-04-05T09:02:33;93849.59;;;4.54;58.24
1472;BME280;963;42.644;23.336;2023-04-05T09:05:01;93861.63;;;4.83;57.70
1472;BME280;963;42.644;23.336;2023-04-05T09:07:28;93831.88;;;4.96;56.55
1472;BME280;963;42.644;23.336;2023-04-05T09:09:56;93853.28;;;4.90;57.68
1472;BME280;963;42.644;23.336;2023-04-05T09:12:25;93858.56;;;4.81;57.33
1472;BME280;963;42.644;23.336;2023-04-05T09:14:51;93845.66;;;4.36;57.99
1472;BME280;963;42.644;23.336;2023-04-05T09:17:17;93863.03;;;4.93;57.84
1472;BME280;963;42.644;23.336;2023-04-05T09:19:45;93859.31;;;5.06;58.41
1472;BME280;963;42.644;23.336;2023-04-05T09:22:14;93865.88;;;4.88;58.37
1472;BME280;963;42.644;23.336;2023-04-05T09:24:43;93869.44;;;4.95;58.18
1472;BME280;963;42.644;23.336;2023-04-05T09:27:09;93859.13;;;4.99;58.41
1472;BME280;963;42.644;23.336;2023-04-05T09:29:36;93852.03;;;5.24;58.64
1472;BME280;963;42.644;23.336;2023-04-05T09:32:02;93870.53;;;4.94;59.33
1472;BME280;963;42.644;23.336;2023-04-05T09:34:29;93846.25;;;5.18;59.15
1472;BME280;963;42.644;23.336;2023-04-05T09:36:56;93852.22;;;5.19;60.09
1472;BME280;963;42.644;23.336;2023-04-05T09:39:28;93841.28;;;5.25;59.72
1472;BME280;963;42.644;23.336;2023-04-05T09:44:48;93852.56;;;5.57;58.93
1472;BME280;963;42.644;23.336;2023-04-05T09:47:15;93853.34;;;5.58;59.13
1472;BME280;963;42.644;23.336;2023-04-05T09:49:42;93836.13;;;5.69;58.57
1472;BME280;963;42.644;23.336;2023-04-05T09:52:25;93838.34;;;5.83;58.08
1472;BME280;963;42.644;23.336;2023-04-05T09:54:53;93844.75;;;5.98;57.29
1472;BME280;963;42.644;23.336;2023-04-05T09:57:21;93837.69;;;5.86;57.79
1472;BME280;963;42.644;23.336;2023-04-05T09:59:47;93842.63;;;5.75;57.40
1472;BME280;963;42.644;23.336;2023-04-05T10:02:12;93854.41;;;5.69;57.49
1472;BME280;963;42.644;23.336;2023-04-05T10:04:44;93842.72;;;5.79;57.30
1472;BME280;963;42.644;23.336;2023-04-05T10:07:12;93833.72;;;5.76;56.33
1472;BME280;963;42.644;23.336;2023-04-05T10:09:39;93834.94;;;5.94;55.43
1472;BME280;963;42.644;23.336;2023-04-05T10:12:06;93851.38;;;5.67;56.03
1472;BME280;963;42.644;23.336;2023-04-05T10:14:31;93855.81;;;5.94;55.58
1472;BME280;963;42.644;23.336;2023-04-05T10:17:23;93846.22;;;5.71;54.88
1472;BME280;963;42.644;23.336;2023-04-05T10:25:42;93844.28;;;5.68;55.03
1472;BME280;963;42.644;23.336;2023-04-05T10:28:28;93856.94;;;5.81;55.42
1472;BME280;963;42.644;23.336;2023-04-05T10:31:02;93846.69;;;5.88;54.59
1472;BME280;963;42.644;23.336;2023-04-05T10:33:34;93851.28;;;5.91;54.45
1472;BME280;963;42.644;23.336;2023-04-05T10:39:03;93856.59;;;5.67;54.98
1472;BME280;963;42.644;23.336;2023-04-05T10:41:34;93858.13;;;5.56;55.00
1472;BME280;963;42.644;23.336;2023-04-05T10:44:02;93855.25;;;5.33;55.67
1472;BME280;963;42.644;23.336;2023-04-05T10:46:29;93859.34;;;5.46;55.55
1472;BME280;963;42.644;23.336;2023-04-05T10:49:03;93887.69;;;5.60;55.78
1472;BME280;963;42.644;23.336;2023-04-05T10:51:33;93846.06;;;5.63;55.34
1472;BME280;963;42.644;23.336;2023-04-05T10:53:59;93861.94;;;5.86;54.54
1472;BME280;963;42.644;23.336;2023-04-05T10:56:25;93884.19;;;5.68;54.72
1472;BME280;963;42.644;23.336;2023-04-05T10:58:51;93854.91;;;5.75;54.52
1472;BME280;963;42.644;23.336;2023-04-05T11:01:18;93863.91;;;5.89;54.22
1472;BME280;963;42.644;23.336;2023-04-05T11:06:22;93883.13;;;5.57;54.22
1472;BME280;963;42.644;23.336;2023-04-05T11:08:53;93859.97;;;5.83;53.88
1472;BME280;963;42.644;23.336;2023-04-05T11:11:21;93850.50;;;5.63;54.95
1472;BME280;963;42.644;23.336;2023-04-05T11:13:51;93866.16;;;6.19;53.85
1472;BME280;963;42.644;23.336;2023-04-05T11:16:17;93882.78;;;6.58;53.78
1472;BME280;963;42.644;23.336;2023-04-05T11:18:51;93859.44;;;6.49;53.18
1472;BME280;963;42.644;23.336;2023-04-05T11:21:28;93890.22;;;6.40;53.03
1472;BME280;963;42.644;23.336;2023-04-05T11:24:10;93889.22;;;6.76;52.27
1472;BME280;963;42.644;23.336;2023-04-05T11:29:08;93875.53;;;6.83;51.42
1472;BME280;963;42.644;23.336;2023-04-05T11:31:33;93875.53;;;6.67;51.71
1472;BME280;963;42.644;23.336;2023-04-05T11:34:02;93858.00;;;6.52;51.59
1472;BME280;963;42.644;23.336;2023-04-05T11:41:45;93867.25;;;6.97;51.60
1472;BME280;963;42.644;23.336;2023-04-05T11:44:14;93868.13;;;6.85;52.40
1472;BME280;963;42.644;23.336;2023-04-05T11:46:44;93854.94;;;6.97;51.54
1472;BME280;963;42.644;23.336;2023-04-05T11:49:11;93869.56;;;6.67;51.83
1472;BME280;963;42.644;23.336;2023-04-05T11:51:39;93872.94;;;6.83;51.78
1472;BME280;963;42.644;23.336;2023-04-05T11:54:07;93865.00;;;6.64;52.35
1472;BME280;963;42.644;23.336;2023-04-05T11:56:32;93860.88;;;6.47;52.65
1472;BME280;963;42.644;23.336;2023-04-05T11:58:58;93874.88;;;6.54;51.99
1472;BME280;963;42.644;23.336;2023-04-05T12:01:23;93870.16;;;6.60;52.39
1472;BME280;963;42.644;23.336;2023-04-05T12:03:56;93879.50;;;6.77;51.89
1472;BME280;963;42.644;23.336;2023-04-05T12:06:22;93869.75;;;6.74;52.41
1472;BME280;963;42.644;23.336;2023-04-05T12:08:48;93871.50;;;6.70;52.05
1472;BME280;963;42.644;23.336;2023-04-05T12:11:16;93888.63;;;6.83;51.82
1472;BME280;963;42.644;23.336;2023-04-05T12:13:41;93877.16;;;6.72;51.83
1472;BME280;963;42.644;23.336;2023-04-05T12:16:07;93860.44;;;7.27;50.97
1472;BME280;963;42.644;23.336;2023-04-05T12:18:36;93864.28;;;7.49;50.58
1472;BME280;963;42.644;23.336;2023-04-05T12:21:04;93851.59;;;7.70;50.72
1472;BME280;963;42.644;23.336;2023-04-05T12:23:30;93873.53;;;7.81;49.82
1472;BME280;963;42.644;23.336;2023-04-05T12:25:56;93854.50;;;7.84;50.46
1472;BME280;963;42.644;23.336;2023-04-05T12:28:22;93852.13;;;8.18;49.44
1472;BME280;963;42.644;23.336;2023-04-05T12:30:52;93859.56;;;8.35;49.19
1472;BME280;963;42.644;23.336;2023-04-05T12:33:27;93855.94;;;8.43;49.69
1472;BME280;963;42.644;23.336;2023-04-05T12:35:53;93874.31;;;8.24;49.88
1472;BME280;963;42.644;23.336;2023-04-05T12:38:18;93859.34;;;8.25;49.49
1472;BME280;963;42.644;23.336;2023-04-05T12:40:44;93862.06;;;8.09;49.52
1472;BME280;963;42.644;23.336;2023-04-05T12:43:10;93864.69;;;7.70;50.40
1472;BME280;963;42.644;23.336;2023-04-05T12:45:36;93885.69;;;7.55;50.63
1472;BME280;963;42.644;23.336;2023-04-05T12:48:12;93869.78;;;7.44;51.32
1472;BME280;963;42.644;23.336;2023-04-05T12:50:45;93874.69;;;7.30;51.32
1472;BME280;963;42.644;23.336;2023-04-05T12:53:16;93885.03;;;7.22;52.06
1472;BME280;963;42.644;23.336;2023-04-05T12:55:47;93869.31;;;6.56;53.05
1472;BME280;963;42.644;23.336;2023-04-05T12:58:13;93892.56;;;7.08;51.82
1472;BME280;963;42.644;23.336;2023-04-05T13:00:39;93855.88;;;6.89;51.68
1472;BME280;963;42.644;23.336;2023-04-05T13:03:04;93896.28;;;6.60;53.27
1472;BME280;963;42.644;23.336;2023-04-05T13:05:30;93883.38;;;6.83;52.91
1472;BME280;963;42.644;23.336;2023-04-05T13:07:56;93882.47;;;6.75;53.49
1472;BME280;963;42.644;23.336;2023-04-05T13:10:23;93890.94;;;7.04;52.48
1472;BME280;963;42.644;23.336;2023-04-05T13:12:49;93898.38;;;7.17;51.71
1472;BME280;963;42.644;23.336;2023-04-05T13:15:15;93894.78;;;7.26;51.14
1472;BME280;963;42.644;23.336;2023-04-05T13:17:42;93897.22;;;7.34;50.21
1472;BME280;963;42.644;23.336;2023-04-05T13:20:09;93902.50;;;7.18;50.99
1472;BME280;963;42.644;23.336;2023-04-05T13:22:35;93889.53;;;7.06;50.26
1472;BME280;963;42.644;23.336;2023-04-05T13:25:01;93883.63;;;6.94;51.48
1472;BME280;963;42.644;23.336;2023-04-05T13:27:26;93888.09;;;6.93;50.92
1472;BME280;963;42.644;23.336;2023-04-05T13:29:52;93888.09;;;6.93;51.02
1472;BME280;963;42.644;23.336;2023-04-05T13:32:17;93898.22;;;6.95;51.18
1472;BME280;963;42.644;23.336;2023-04-05T13:34:42;93879.50;;;6.77;50.95
1472;BME280;963;42.644;23.336;2023-04-05T13:37:08;93872.78;;;6.76;50.90
1472;BME280;963;42.644;23.336;2023-04-05T13:39:33;93879.16;;;6.63;51.67
1472;BME280;963;42.644;23.336;2023-04-05T13:41:59;93876.91;;;6.45;51.82
1472;BME280;963;42.644;23.336;2023-04-05T13:44:25;93883.38;;;6.51;51.49
1472;BME280;963;42.644;23.336;2023-04-05T13:46:51;93898.81;;;6.13;53.04
1472;BME280;963;42.644;23.336;2023-04-05T13:49:16;93883.28;;;6.32;52.55
1472;BME280;963;42.644;23.336;2023-04-05T13:51:42;93885.94;;;6.04;53.16
1472;BME280;963;42.644;23.336;2023-04-05T13:54:07;93899.81;;;6.36;52.53
1472;BME280;963;42.644;23.336;2023-04-05T13:56:36;93890.78;;;6.49;52.43
1472;BME280;963;42.644;23.336;2023-04-05T13:59:01;93901.31;;;6.37;52.66
1472;BME280;963;42.644;23.336;2023-04-05T14:01:26;93893.31;;;6.62;52.05
1472;BME280;963;42.644;23.336;2023-04-05T14:03:52;93902.50;;;6.40;52.49